sensor_id;sensor_type;location;lat;lon;timestamp;P1;durP1;ratioP1;P2;durP2;ratioP2
64063;SDS011;50314;50.618;10.642;2023-07-24T00:00:13;1.25;;;1.00;;
64063;SDS011;50314;50.618;10.642;2023-07-24T00:02:39;1.83;;;1.02;;
64063;SDS011;50314;50.618;10.642;2023-07-24T00:05:04;1.42;;;1.15;;
64063;SDS011;50314;50.618;10.642;2023-07-24T00:07:30;1.42;;;1.20;;
64063;SDS011;50314;50.618;10.642;2023-07-24T00:09:55;1.33;;;1.15;;
64063;SDS011;50314;50.618;10.642;2023-07-24T00:12:21;1.65;;;1.13;;
64063;SDS011;50314;50.618;10.642;2023-07-24T00:14:47;1.90;;;1.17;;
64063;SDS011;50314;50.618;10.642;2023-07-24T00:17:12;1.52;;;1.08;;
64063;SDS011;50314;50.618;10.642;2023-07-24T00:19:38;1.45;;;1.08;;
64063;SDS011;50314;50.618;10.642;2023-07-24T00:22:03;1.13;;;1.00;;
64063;SDS011;50314;50.618;10.642;2023-07-24T00:24:29;1.95;;;1.20;;
64063;SDS011;50314;50.618;10.642;2023-07-24T00:26:56;1.92;;;1.17;;
64063;SDS011;50314;50.618;10.642;2023-07-24T00:29:21;1.70;;;1.17;;
64063;SDS011;50314;50.618;10.642;2023-07-24T00:31:47;1.73;;;1.10;;
64063;SDS011;50314;50.618;10.642;2023-07-24T00:34:13;1.90;;;1.20;;
64063;SDS011;50314;50.618;10.642;2023-07-24T00:36:38;1.50;;;1.15;;
64063;SDS011;50314;50.618;10.642;2023-07-24T00:39:04;1.27;;;1.00;;
64063;SDS011;50314;50.618;10.642;2023-07-24T00:41:29;2.08;;;1.38;;
64063;SDS011;50314;50.618;10.642;2023-07-24T00:43:54;1.35;;;1.15;;
64063;SDS011;50314;50.618;10.642;2023-07-24T00:46:20;1.25;;;1.05;;
64063;SDS011;50314;50.618;10.642;2023-07-24T00:48:46;1.33;;;1.13;;
64063;SDS011;50314;50.618;10.642;2023-07-24T00:51:12;1.48;;;1.13;;
64063;SDS011;50314;50.618;10.642;2023-07-24T00:53:37;1.70;;;1.33;;
64063;SDS011;50314;50.618;10.642;2023-07-24T00:56:03;1.50;;;1.17;;
64063;SDS011;50314;50.618;10.642;2023-07-24T00:58:29;1.48;;;1.20;;
64063;SDS011;50314;50.618;10.642;2023-07-24T01:00:55;1.48;;;1.17;;
64063;SDS011;50314;50.618;10.642;2023-07-24T01:03:22;1.48;;;1.13;;
64063;SDS011;50314;50.618;10.642;2023-07-24T01:05:59;1.70;;;1.27;;
64063;SDS011;50314;50.618;10.642;2023-07-24T01:08:27;1.50;;;1.23;;
64063;SDS011;50314;50.618;10.642;2023-07-24T01:10:52;1.23;;;1.10;;
64063;SDS011;50314;50.618;10.642;2023-07-24T01:13:19;2.40;;;1.45;;
64063;SDS011;50314;50.618;10.642;2023-07-24T01:15:56;1.42;;;1.15;;
64063;SDS011;50314;50.618;10.642;2023-07-24T01:18:28;1.60;;;1.20;;
64063;SDS011;50314;50.618;10.642;2023-07-24T01:20:56;1.95;;;1.38;;
64063;SDS011;50314;50.618;10.642;2023-07-24T01:26:28;1.17;;;1.08;;
64063;SDS011;50314;50.618;10.642;2023-07-24T01:28:53;2.13;;;1.30;;
64063;SDS011;50314;50.618;10.642;2023-07-24T01:31:19;1.92;;;1.30;;
64063;SDS011;50314;50.618;10.642;2023-07-24T01:33:44;1.70;;;1.10;;
64063;SDS011;50314;50.618;10.642;2023-07-24T01:36:10;1.95;;;1.30;;
64063;SDS011;50314;50.618;10.642;2023-07-24T01:38:37;2.08;;;1.20;;
64063;SDS011;50314;50.618;10.642;2023-07-24T01:41:04;2.15;;;1.35;;
64063;SDS011;50314;50.618;10.642;2023-07-24T01:43:30;1.50;;;1.30;;
64063;SDS011;50314;50.618;10.642;2023-07-24T01:50:47;1.45;;;1.10;;
64063;SDS011;50314;50.618;10.642;2023-07-24T01:53:13;1.83;;;1.10;;
64063;SDS011;50314;50.618;10.642;2023-07-24T01:55:38;1.67;;;1.27;;
64063;SDS011;50314;50.618;10.642;2023-07-24T01:58:04;1.50;;;1.40;;
64063;SDS011;50314;50.618;10.642;2023-07-24T02:00:29;1.77;;;1.38;;
64063;SDS011;50314;50.618;10.642;2023-07-24T02:02:55;1.20;;;1.05;;
64063;SDS011;50314;50.618;10.642;2023-07-24T02:05:21;1.42;;;1.20;;
64063;SDS011;50314;50.618;10.642;2023-07-24T02:07:47;1.48;;;1.05;;
64063;SDS011;50314;50.618;10.642;2023-07-24T02:10:12;2.55;;;1.45;;
64063;SDS011;50314;50.618;10.642;2023-07-24T02:12:38;1.70;;;1.30;;
64063;SDS011;50314;50.618;10.642;2023-07-24T02:15:03;1.52;;;1.17;;
64063;SDS011;50314;50.618;10.642;2023-07-24T02:17:29;1.75;;;1.30;;
64063;SDS011;50314;50.618;10.642;2023-07-24T02:19:54;1.80;;;1.20;;
64063;SDS011;50314;50.618;10.642;2023-07-24T02:22:20;1.95;;;1.17;;
64063;SDS011;50314;50.618;10.642;2023-07-24T02:24:45;1.40;;;1.02;;
64063;SDS011;50314;50.618;10.642;2023-07-24T02:27:24;1.88;;;1.45;;
64063;SDS011;50314;50.618;10.642;2023-07-24T02:29:53;1.10;;;1.00;;
64063;SDS011;50314;50.618;10.642;2023-07-24T02:32:19;1.58;;;1.02;;
64063;SDS011;50314;50.618;10.642;2023-07-24T02:34:48;1.42;;;1.20;;
64063;SDS011;50314;50.618;10.642;2023-07-24T02:37:15;1.92;;;1.30;;
64063;SDS011;50314;50.618;10.642;2023-07-24T02:39:40;1.40;;;1.30;;
64063;SDS011;50314;50.618;10.642;2023-07-24T02:42:06;1.88;;;1.33;;
64063;SDS011;50314;50.618;10.642;2023-07-24T02:44:32;1.60;;;1.20;;
64063;SDS011;50314;50.618;10.642;2023-07-24T02:46:59;1.48;;;1.15;;
64063;SDS011;50314;50.618;10.642;2023-07-24T02:49:25;1.05;;;0.95;;
64063;SDS011;50314;50.618;10.642;2023-07-24T02:51:50;1.50;;;1.20;;
64063;SDS011;50314;50.618;10.642;2023-07-24T02:54:16;1.90;;;1.20;;
64063;SDS011;50314;50.618;10.642;2023-07-24T02:56:41;2.63;;;1.50;;
64063;SDS011;50314;50.618;10.642;2023-07-24T02:59:06;1.52;;;1.13;;
64063;SDS011;50314;50.618;10.642;2023-07-24T03:01:32;1.48;;;1.35;;
64063;SDS011;50314;50.618;10.642;2023-07-24T03:03:57;1.33;;;1.05;;
64063;SDS011;50314;50.618;10.642;2023-07-24T03:06:23;1.08;;;0.95;;
64063;SDS011;50314;50.618;10.642;2023-07-24T03:08:49;1.70;;;1.42;;
64063;SDS011;50314;50.618;10.642;2023-07-24T03:11:14;2.40;;;1.55;;
64063;SDS011;50314;50.618;10.642;2023-07-24T03:13:40;1.45;;;1.17;;
64063;SDS011;50314;50.618;10.642;2023-07-24T03:16:06;1.60;;;1.30;;
64063;SDS011;50314;50.618;10.642;2023-07-24T03:18:31;1.10;;;1.00;;
64063;SDS011;50314;50.618;10.642;2023-07-24T03:20:57;1.63;;;1.30;;
64063;SDS011;50314;50.618;10.642;2023-07-24T03:23:24;2.20;;;1.23;;
64063;SDS011;50314;50.618;10.642;2023-07-24T03:25:49;2.17;;;1.40;;
64063;SDS011;50314;50.618;10.642;2023-07-24T03:28:15;1.80;;;1.08;;
64063;SDS011;50314;50.618;10.642;2023-07-24T03:30:40;1.70;;;1.33;;
64063;SDS011;50314;50.618;10.642;2023-07-24T03:33:06;1.60;;;1.20;;
64063;SDS011;50314;50.618;10.642;2023-07-24T03:35:32;1.90;;;1.20;;
64063;SDS011;50314;50.618;10.642;2023-07-24T03:37:58;1.77;;;1.38;;
64063;SDS011;50314;50.618;10.642;2023-07-24T03:40:23;1.45;;;1.30;;
64063;SDS011;50314;50.618;10.642;2023-07-24T03:42:49;1.83;;;1.40;;
64063;SDS011;50314;50.618;10.642;2023-07-24T03:45:14;2.10;;;1.17;;
64063;SDS011;50314;50.618;10.642;2023-07-24T03:47:40;1.50;;;1.27;;
64063;SDS011;50314;50.618;10.642;2023-07-24T03:50:05;1.30;;;1.17;;
64063;SDS011;50314;50.618;10.642;2023-07-24T03:52:31;1.90;;;1.60;;
64063;SDS011;50314;50.618;10.642;2023-07-24T03:54:56;1.92;;;1.50;;
64063;SDS011;50314;50.618;10.642;2023-07-24T03:57:22;2.20;;;1.40;;
64063;SDS011;50314;50.618;10.642;2023-07-24T03:59:47;1.50;;;1.20;;
64063;SDS011;50314;50.618;10.642;2023-07-24T04:02:13;2.10;;;1.60;;
64063;SDS011;50314;50.618;10.642;2023-07-24T04:04:38;1.98;;;1.40;;
64063;SDS011;50314;50.618;10.642;2023-07-24T04:07:04;2.08;;;1.38;;
64063;SDS011;50314;50.618;10.642;2023-07-24T04:09:30;2.03;;;1.38;;
64063;SDS011;50314;50.618;10.642;2023-07-24T04:11:55;2.08;;;1.50;;
64063;SDS011;50314;50.618;10.642;2023-07-24T04:14:21;1.85;;;1.27;;
64063;SDS011;50314;50.618;10.642;2023-07-24T04:16:46;1.70;;;1.45;;
64063;SDS011;50314;50.618;10.642;2023-07-24T04:19:12;3.10;;;1.40;;
64063;SDS011;50314;50.618;10.642;2023-07-24T04:21:37;1.55;;;1.42;;
64063;SDS011;50314;50.618;10.642;2023-07-24T04:24:03;2.63;;;1.42;;
64063;SDS011;50314;50.618;10.642;2023-07-24T04:26:29;2.05;;;1.33;;
64063;SDS011;50314;50.618;10.642;2023-07-24T04:28:54;1.52;;;1.33;;
64063;SDS011;50314;50.618;10.642;2023-07-24T04:31:20;1.92;;;1.40;;
64063;SDS011;50314;50.618;10.642;2023-07-24T04:33:46;2.42;;;1.55;;
64063;SDS011;50314;50.618;10.642;2023-07-24T04:36:11;3.15;;;1.40;;
64063;SDS011;50314;50.618;10.642;2023-07-24T04:38:37;2.10;;;1.40;;
64063;SDS011;50314;50.618;10.642;2023-07-24T04:41:02;1.50;;;1.40;;
64063;SDS011;50314;50.618;10.642;2023-07-24T04:43:28;2.60;;;1.40;;
64063;SDS011;50314;50.618;10.642;2023-07-24T04:45:54;2.05;;;1.38;;
64063;SDS011;50314;50.618;10.642;2023-07-24T04:48:20;1.35;;;1.05;;
64063;SDS011;50314;50.618;10.642;2023-07-24T04:50:45;5.18;;;2.05;;
64063;SDS011;50314;50.618;10.642;2023-07-24T04:53:11;2.28;;;1.30;;
64063;SDS011;50314;50.618;10.642;2023-07-24T04:55:37;2.15;;;1.45;;
64063;SDS011;50314;50.618;10.642;2023-07-24T04:58:03;2.53;;;1.50;;
64063;SDS011;50314;50.618;10.642;2023-07-24T05:00:29;2.63;;;1.63;;
64063;SDS011;50314;50.618;10.642;2023-07-24T05:02:54;1.63;;;1.40;;
64063;SDS011;50314;50.618;10.642;2023-07-24T05:05:20;3.03;;;1.45;;
64063;SDS011;50314;50.618;10.642;2023-07-24T05:07:46;2.20;;;1.40;;
64063;SDS011;50314;50.618;10.642;2023-07-24T05:10:11;2.22;;;1.40;;
64063;SDS011;50314;50.618;10.642;2023-07-24T05:12:40;1.63;;;1.30;;
64063;SDS011;50314;50.618;10.642;2023-07-24T05:15:07;1.50;;;1.40;;
64063;SDS011;50314;50.618;10.642;2023-07-24T05:17:33;1.83;;;1.40;;
64063;SDS011;50314;50.618;10.642;2023-07-24T05:19:59;1.45;;;1.10;;
64063;SDS011;50314;50.618;10.642;2023-07-24T05:22:24;2.05;;;1.30;;
64063;SDS011;50314;50.618;10.642;2023-07-24T05:24:50;1.70;;;1.27;;
64063;SDS011;50314;50.618;10.642;2023-07-24T05:27:15;1.50;;;1.33;;
64063;SDS011;50314;50.618;10.642;2023-07-24T05:29:41;2.78;;;1.60;;
64063;SDS011;50314;50.618;10.642;2023-07-24T05:32:07;2.20;;;1.52;;
64063;SDS011;50314;50.618;10.642;2023-07-24T05:34:32;2.05;;;1.50;;
64063;SDS011;50314;50.618;10.642;2023-07-24T05:36:58;1.80;;;1.00;;
64063;SDS011;50314;50.618;10.642;2023-07-24T05:39:24;1.23;;;1.13;;
64063;SDS011;50314;50.618;10.642;2023-07-24T05:41:49;2.15;;;1.80;;
64063;SDS011;50314;50.618;10.642;2023-07-24T05:44:15;1.67;;;1.35;;
64063;SDS011;50314;50.618;10.642;2023-07-24T05:46:40;1.60;;;1.40;;
64063;SDS011;50314;50.618;10.642;2023-07-24T05:49:06;2.33;;;1.38;;
64063;SDS011;50314;50.618;10.642;2023-07-24T05:51:31;1.75;;;1.25;;
64063;SDS011;50314;50.618;10.642;2023-07-24T05:53:57;1.92;;;1.50;;
64063;SDS011;50314;50.618;10.642;2023-07-24T05:56:23;1.60;;;1.30;;
64063;SDS011;50314;50.618;10.642;2023-07-24T05:58:49;1.90;;;1.40;;
64063;SDS011;50314;50.618;10.642;2023-07-24T06:01:15;1.48;;;1.27;;
64063;SDS011;50314;50.618;10.642;2023-07-24T06:03:40;2.60;;;1.80;;
64063;SDS011;50314;50.618;10.642;2023-07-24T06:06:06;3.67;;;1.77;;
64063;SDS011;50314;50.618;10.642;2023-07-24T06:08:32;1.90;;;1.50;;
64063;SDS011;50314;50.618;10.642;2023-07-24T06:10:57;2.08;;;1.33;;
64063;SDS011;50314;50.618;10.642;2023-07-24T06:13:23;1.63;;;1.38;;
64063;SDS011;50314;50.618;10.642;2023-07-24T06:15:49;4.00;;;1.75;;
64063;SDS011;50314;50.618;10.642;2023-07-24T06:18:16;1.58;;;1.27;;
64063;SDS011;50314;50.618;10.642;2023-07-24T06:20:42;3.15;;;1.50;;
64063;SDS011;50314;50.618;10.642;2023-07-24T06:23:08;2.55;;;1.55;;
64063;SDS011;50314;50.618;10.642;2023-07-24T06:25:33;2.58;;;1.63;;
64063;SDS011;50314;50.618;10.642;2023-07-24T06:27:59;2.50;;;1.67;;
64063;SDS011;50314;50.618;10.642;2023-07-24T06:30:25;1.90;;;1.25;;
64063;SDS011;50314;50.618;10.642;2023-07-24T06:32:51;2.55;;;1.63;;
64063;SDS011;50314;50.618;10.642;2023-07-24T06:35:17;1.50;;;1.30;;
64063;SDS011;50314;50.618;10.642;2023-07-24T06:37:42;2.13;;;1.33;;
64063;SDS011;50314;50.618;10.642;2023-07-24T06:40:08;2.95;;;2.15;;
64063;SDS011;50314;50.618;10.642;2023-07-24T06:42:34;4.80;;;2.75;;
64063;SDS011;50314;50.618;10.642;2023-07-24T06:45:00;5.97;;;3.67;;
64063;SDS011;50314;50.618;10.642;2023-07-24T06:47:26;7.00;;;3.92;;
64063;SDS011;50314;50.618;10.642;2023-07-24T06:49:51;8.40;;;4.28;;
64063;SDS011;50314;50.618;10.642;2023-07-24T06:52:17;7.30;;;4.20;;
64063;SDS011;50314;50.618;10.642;2023-07-24T06:54:43;8.23;;;3.88;;
64063;SDS011;50314;50.618;10.642;2023-07-24T06:57:09;7.78;;;4.25;;
64063;SDS011;50314;50.618;10.642;2023-07-24T06:59:34;8.73;;;4.80;;
64063;SDS011;50314;50.618;10.642;2023-07-24T07:02:00;7.65;;;3.90;;
64063;SDS011;50314;50.618;10.642;2023-07-24T07:04:26;7.78;;;4.20;;
64063;SDS011;50314;50.618;10.642;2023-07-24T07:06:51;5.93;;;3.60;;
64063;SDS011;50314;50.618;10.642;2023-07-24T07:09:17;5.78;;;3.83;;
64063;SDS011;50314;50.618;10.642;2023-07-24T07:11:43;7.40;;;4.00;;
64063;SDS011;50314;50.618;10.642;2023-07-24T07:16:35;5.28;;;3.45;;
64063;SDS011;50314;50.618;10.642;2023-07-24T07:19:01;6.93;;;4.45;;
64063;SDS011;50314;50.618;10.642;2023-07-24T07:21:26;7.43;;;4.70;;
64063;SDS011;50314;50.618;10.642;2023-07-24T07:23:52;9.02;;;4.00;;
64063;SDS011;50314;50.618;10.642;2023-07-24T07:26:18;7.93;;;4.20;;
64063;SDS011;50314;50.618;10.642;2023-07-24T07:28:43;6.25;;;3.90;;
64063;SDS011;50314;50.618;10.642;2023-07-24T07:31:12;6.85;;;4.30;;
64063;SDS011;50314;50.618;10.642;2023-07-24T07:33:38;5.70;;;3.42;;
64063;SDS011;50314;50.618;10.642;2023-07-24T07:36:03;5.75;;;3.78;;
64063;SDS011;50314;50.618;10.642;2023-07-24T07:38:30;6.63;;;4.05;;
64063;SDS011;50314;50.618;10.642;2023-07-24T07:40:56;6.57;;;4.55;;
64063;SDS011;50314;50.618;10.642;2023-07-24T07:43:22;7.38;;;4.68;;
64063;SDS011;50314;50.618;10.642;2023-07-24T07:45:47;6.63;;;4.03;;
64063;SDS011;50314;50.618;10.642;2023-07-24T07:48:13;6.47;;;4.05;;
64063;SDS011;50314;50.618;10.642;2023-07-24T07:50:39;6.68;;;3.67;;
64063;SDS011;50314;50.618;10.642;2023-07-24T07:53:05;8.50;;;3.95;;
64063;SDS011;50314;50.618;10.642;2023-07-24T07:55:30;6.28;;;3.50;;
64063;SDS011;50314;50.618;10.642;2023-07-24T07:57:56;6.03;;;3.38;;
64063;SDS011;50314;50.618;10.642;2023-07-24T08:00:22;5.82;;;3.35;;
64063;SDS011;50314;50.618;10.642;2023-07-24T08:02:47;5.03;;;3.40;;
64063;SDS011;50314;50.618;10.642;2023-07-24T08:05:13;6.15;;;3.50;;
64063;SDS011;50314;50.618;10.642;2023-07-24T08:07:39;4.82;;;3.05;;
64063;SDS011;50314;50.618;10.642;2023-07-24T08:10:05;5.20;;;3.38;;
64063;SDS011;50314;50.618;10.642;2023-07-24T08:12:31;5.35;;;3.40;;
64063;SDS011;50314;50.618;10.642;2023-07-24T08:14:57;5.90;;;3.00;;
64063;SDS011;50314;50.618;10.642;2023-07-24T08:17:23;6.20;;;3.47;;
64063;SDS011;50314;50.618;10.642;2023-07-24T08:19:48;5.28;;;3.30;;
64063;SDS011;50314;50.618;10.642;2023-07-24T08:22:14;6.32;;;3.45;;
64063;SDS011;50314;50.618;10.642;2023-07-24T08:24:40;5.28;;;2.95;;
64063;SDS011;50314;50.618;10.642;2023-07-24T08:27:05;4.82;;;2.83;;
64063;SDS011;50314;50.618;10.642;2023-07-24T08:29:31;4.85;;;3.28;;
64063;SDS011;50314;50.618;10.642;2023-07-24T08:31:58;5.38;;;3.00;;
64063;SDS011;50314;50.618;10.642;2023-07-24T08:34:23;5.88;;;2.78;;
64063;SDS011;50314;50.618;10.642;2023-07-24T08:36:49;4.50;;;2.78;;
64063;SDS011;50314;50.618;10.642;2023-07-24T08:39:15;4.28;;;2.80;;
64063;SDS011;50314;50.618;10.642;2023-07-24T08:41:40;4.32;;;2.70;;
64063;SDS011;50314;50.618;10.642;2023-07-24T08:44:09;5.13;;;2.83;;
64063;SDS011;50314;50.618;10.642;2023-07-24T08:46:35;5.20;;;3.22;;
64063;SDS011;50314;50.618;10.642;2023-07-24T08:49:02;4.75;;;2.90;;
64063;SDS011;50314;50.618;10.642;2023-07-24T08:51:28;4.80;;;2.63;;
64063;SDS011;50314;50.618;10.642;2023-07-24T08:53:56;3.92;;;2.40;;
64063;SDS011;50314;50.618;10.642;2023-07-24T08:56:22;4.28;;;2.42;;
64063;SDS011;50314;50.618;10.642;2023-07-24T08:58:48;4.63;;;2.35;;
64063;SDS011;50314;50.618;10.642;2023-07-24T09:01:14;5.15;;;2.60;;
64063;SDS011;50314;50.618;10.642;2023-07-24T09:03:40;3.72;;;2.33;;
64063;SDS011;50314;50.618;10.642;2023-07-24T09:06:05;4.72;;;2.83;;
64063;SDS011;50314;50.618;10.642;2023-07-24T09:08:43;4.72;;;2.70;;
64063;SDS011;50314;50.618;10.642;2023-07-24T09:11:09;4.15;;;2.50;;
64063;SDS011;50314;50.618;10.642;2023-07-24T09:13:36;4.45;;;2.72;;
64063;SDS011;50314;50.618;10.642;2023-07-24T09:16:03;3.95;;;2.45;;
64063;SDS011;50314;50.618;10.642;2023-07-24T09:18:42;4.13;;;2.70;;
64063;SDS011;50314;50.618;10.642;2023-07-24T09:21:09;4.47;;;2.63;;
64063;SDS011;50314;50.618;10.642;2023-07-24T09:23:37;3.78;;;2.50;;
64063;SDS011;50314;50.618;10.642;2023-07-24T09:26:06;3.83;;;2.47;;
64063;SDS011;50314;50.618;10.642;2023-07-24T09:28:32;4.13;;;2.30;;
64063;SDS011;50314;50.618;10.642;2023-07-24T09:30:59;4.18;;;2.55;;
64063;SDS011;50314;50.618;10.642;2023-07-24T09:33:35;4.60;;;2.30;;
64063;SDS011;50314;50.618;10.642;2023-07-24T09:38:27;3.72;;;2.38;;
64063;SDS011;50314;50.618;10.642;2023-07-24T09:40:53;3.80;;;2.30;;
64063;SDS011;50314;50.618;10.642;2023-07-24T09:43:21;3.63;;;2.45;;
64063;SDS011;50314;50.618;10.642;2023-07-24T09:45:52;3.75;;;2.58;;
64063;SDS011;50314;50.618;10.642;2023-07-24T09:48:19;3.70;;;2.42;;
64063;SDS011;50314;50.618;10.642;2023-07-24T09:50:47;3.97;;;2.38;;
64063;SDS011;50314;50.618;10.642;2023-07-24T09:55:54;3.70;;;2.35;;
64063;SDS011;50314;50.618;10.642;2023-07-24T09:58:22;4.68;;;2.13;;
64063;SDS011;50314;50.618;10.642;2023-07-24T10:00:51;5.90;;;3.40;;
64063;SDS011;50314;50.618;10.642;2023-07-24T10:03:18;8.52;;;3.97;;
64063;SDS011;50314;50.618;10.642;2023-07-24T10:05:45;5.97;;;3.85;;
64063;SDS011;50314;50.618;10.642;2023-07-24T10:08:15;7.65;;;4.47;;
64063;SDS011;50314;50.618;10.642;2023-07-24T10:10:42;6.80;;;4.10;;
64063;SDS011;50314;50.618;10.642;2023-07-24T10:13:08;7.05;;;4.65;;
64063;SDS011;50314;50.618;10.642;2023-07-24T10:15:37;8.25;;;4.60;;
64063;SDS011;50314;50.618;10.642;2023-07-24T10:18:05;9.00;;;5.40;;
64063;SDS011;50314;50.618;10.642;2023-07-24T10:20:32;7.20;;;4.68;;
64063;SDS011;50314;50.618;10.642;2023-07-24T10:23:04;7.13;;;4.72;;
64063;SDS011;50314;50.618;10.642;2023-07-24T10:25:34;8.80;;;4.65;;
64063;SDS011;50314;50.618;10.642;2023-07-24T10:28:02;7.18;;;4.60;;
64063;SDS011;50314;50.618;10.642;2023-07-24T10:30:32;8.40;;;5.10;;
64063;SDS011;50314;50.618;10.642;2023-07-24T10:38:38;7.00;;;4.75;;
64063;SDS011;50314;50.618;10.642;2023-07-24T10:41:06;7.60;;;4.80;;
64063;SDS011;50314;50.618;10.642;2023-07-24T10:43:43;7.43;;;4.32;;
64063;SDS011;50314;50.618;10.642;2023-07-24T10:46:34;7.93;;;4.55;;
64063;SDS011;50314;50.618;10.642;2023-07-24T10:49:00;9.30;;;4.60;;
64063;SDS011;50314;50.618;10.642;2023-07-24T10:51:28;6.93;;;4.18;;
64063;SDS011;50314;50.618;10.642;2023-07-24T10:53:55;6.65;;;4.38;;
64063;SDS011;50314;50.618;10.642;2023-07-24T10:56:20;7.85;;;4.20;;
64063;SDS011;50314;50.618;10.642;2023-07-24T10:58:46;7.78;;;5.25;;
64063;SDS011;50314;50.618;10.642;2023-07-24T11:01:12;6.78;;;4.68;;
64063;SDS011;50314;50.618;10.642;2023-07-24T11:03:40;7.97;;;5.00;;
64063;SDS011;50314;50.618;10.642;2023-07-24T11:06:16;8.18;;;4.72;;
64063;SDS011;50314;50.618;10.642;2023-07-24T11:08:53;6.68;;;4.18;;
64063;SDS011;50314;50.618;10.642;2023-07-24T11:11:29;6.75;;;4.38;;
64063;SDS011;50314;50.618;10.642;2023-07-24T11:13:58;7.13;;;4.60;;
64063;SDS011;50314;50.618;10.642;2023-07-24T11:16:26;8.35;;;4.68;;
64063;SDS011;50314;50.618;10.642;2023-07-24T11:18:52;6.60;;;4.00;;
64063;SDS011;50314;50.618;10.642;2023-07-24T11:21:19;8.48;;;4.80;;
64063;SDS011;50314;50.618;10.642;2023-07-24T11:23:48;8.75;;;4.25;;
64063;SDS011;50314;50.618;10.642;2023-07-24T11:26:18;7.43;;;4.80;;
64063;SDS011;50314;50.618;10.642;2023-07-24T11:28:48;6.50;;;4.32;;
64063;SDS011;50314;50.618;10.642;2023-07-24T11:31:14;7.53;;;4.63;;
64063;SDS011;50314;50.618;10.642;2023-07-24T11:33:40;8.77;;;4.00;;
64063;SDS011;50314;50.618;10.642;2023-07-24T11:36:07;8.65;;;4.47;;
64063;SDS011;50314;50.618;10.642;2023-07-24T11:38:33;7.22;;;4.35;;
64063;SDS011;50314;50.618;10.642;2023-07-24T11:40:58;6.85;;;4.45;;
64063;SDS011;50314;50.618;10.642;2023-07-24T11:43:24;8.48;;;4.15;;
64063;SDS011;50314;50.618;10.642;2023-07-24T11:45:51;7.30;;;4.15;;
64063;SDS011;50314;50.618;10.642;2023-07-24T11:48:21;7.13;;;4.75;;
64063;SDS011;50314;50.618;10.642;2023-07-24T11:50:49;9.30;;;5.00;;
64063;SDS011;50314;50.618;10.642;2023-07-24T11:53:26;8.10;;;4.25;;
64063;SDS011;50314;50.618;10.642;2023-07-24T11:58:19;7.53;;;4.68;;
64063;SDS011;50314;50.618;10.642;2023-07-24T12:00:46;7.60;;;4.90;;
64063;SDS011;50314;50.618;10.642;2023-07-24T12:03:12;8.50;;;4.20;;
64063;SDS011;50314;50.618;10.642;2023-07-24T12:05:42;6.93;;;4.68;;
64063;SDS011;50314;50.618;10.642;2023-07-24T12:08:09;7.38;;;4.40;;
64063;SDS011;50314;50.618;10.642;2023-07-24T12:10:36;6.82;;;4.50;;
64063;SDS011;50314;50.618;10.642;2023-07-24T12:13:03;9.48;;;4.32;;
64063;SDS011;50314;50.618;10.642;2023-07-24T12:15:29;8.48;;;4.47;;
64063;SDS011;50314;50.618;10.642;2023-07-24T12:17:55;6.82;;;4.25;;
64063;SDS011;50314;50.618;10.642;2023-07-24T12:22:47;6.70;;;4.45;;
64063;SDS011;50314;50.618;10.642;2023-07-24T12:25:13;7.25;;;4.18;;
64063;SDS011;50314;50.618;10.642;2023-07-24T12:27:40;7.07;;;4.10;;
64063;SDS011;50314;50.618;10.642;2023-07-24T12:30:07;6.80;;;4.32;;
64063;SDS011;50314;50.618;10.642;2023-07-24T12:32:33;7.32;;;4.78;;
64063;SDS011;50314;50.618;10.642;2023-07-24T12:35:00;6.57;;;4.70;;
64063;SDS011;50314;50.618;10.642;2023-07-24T12:37:25;6.95;;;4.10;;
64063;SDS011;50314;50.618;10.642;2023-07-24T12:39:51;7.25;;;4.97;;
64063;SDS011;50314;50.618;10.642;2023-07-24T12:42:17;7.93;;;4.28;;
64063;SDS011;50314;50.618;10.642;2023-07-24T12:44:43;6.28;;;4.50;;
64063;SDS011;50314;50.618;10.642;2023-07-24T12:47:09;7.43;;;4.88;;
64063;SDS011;50314;50.618;10.642;2023-07-24T12:49:36;6.35;;;3.97;;
64063;SDS011;50314;50.618;10.642;2023-07-24T12:52:02;7.00;;;4.15;;
64063;SDS011;50314;50.618;10.642;2023-07-24T12:54:29;6.57;;;3.70;;
64063;SDS011;50314;50.618;10.642;2023-07-24T12:56:54;6.70;;;4.43;;
64063;SDS011;50314;50.618;10.642;2023-07-24T12:59:20;5.78;;;4.00;;
64063;SDS011;50314;50.618;10.642;2023-07-24T13:01:46;7.35;;;4.60;;
64063;SDS011;50314;50.618;10.642;2023-07-24T13:04:11;7.90;;;4.63;;
64063;SDS011;50314;50.618;10.642;2023-07-24T13:06:37;8.52;;;4.22;;
64063;SDS011;50314;50.618;10.642;2023-07-24T13:09:03;6.93;;;4.35;;
64063;SDS011;50314;50.618;10.642;2023-07-24T13:11:30;7.57;;;4.78;;
64063;SDS011;50314;50.618;10.642;2023-07-24T13:13:56;8.38;;;5.10;;
64063;SDS011;50314;50.618;10.642;2023-07-24T13:16:22;6.30;;;4.15;;
64063;SDS011;50314;50.618;10.642;2023-07-24T13:18:48;6.63;;;4.13;;
64063;SDS011;50314;50.618;10.642;2023-07-24T13:21:14;9.85;;;4.57;;
64063;SDS011;50314;50.618;10.642;2023-07-24T13:23:39;6.93;;;4.72;;
64063;SDS011;50314;50.618;10.642;2023-07-24T13:26:05;6.25;;;4.45;;
64063;SDS011;50314;50.618;10.642;2023-07-24T13:28:33;6.25;;;4.10;;
64063;SDS011;50314;50.618;10.642;2023-07-24T13:30:59;5.82;;;3.75;;
64063;SDS011;50314;50.618;10.642;2023-07-24T13:33:25;6.38;;;3.72;;
64063;SDS011;50314;50.618;10.642;2023-07-24T13:35:50;5.85;;;3.63;;
64063;SDS011;50314;50.618;10.642;2023-07-24T13:38:16;10.07;;;3.83;;
64063;SDS011;50314;50.618;10.642;2023-07-24T13:40:42;5.65;;;3.80;;
64063;SDS011;50314;50.618;10.642;2023-07-24T13:43:07;6.25;;;3.50;;
64063;SDS011;50314;50.618;10.642;2023-07-24T13:45:33;6.40;;;3.78;;
64063;SDS011;50314;50.618;10.642;2023-07-24T13:47:59;6.32;;;3.90;;
64063;SDS011;50314;50.618;10.642;2023-07-24T13:50:24;5.45;;;3.33;;
64063;SDS011;50314;50.618;10.642;2023-07-24T13:52:50;5.93;;;3.97;;
64063;SDS011;50314;50.618;10.642;2023-07-24T13:55:15;5.32;;;3.33;;
64063;SDS011;50314;50.618;10.642;2023-07-24T13:57:41;5.63;;;3.55;;
64063;SDS011;50314;50.618;10.642;2023-07-24T14:00:07;6.20;;;3.65;;
64063;SDS011;50314;50.618;10.642;2023-07-24T14:02:33;6.30;;;3.65;;
64063;SDS011;50314;50.618;10.642;2023-07-24T14:04:58;5.22;;;3.42;;
64063;SDS011;50314;50.618;10.642;2023-07-24T14:07:24;6.10;;;3.95;;
64063;SDS011;50314;50.618;10.642;2023-07-24T14:09:49;5.63;;;3.40;;
64063;SDS011;50314;50.618;10.642;2023-07-24T14:12:15;6.22;;;3.58;;
64063;SDS011;50314;50.618;10.642;2023-07-24T14:14:41;5.70;;;3.70;;
64063;SDS011;50314;50.618;10.642;2023-07-24T14:17:06;5.50;;;3.63;;
64063;SDS011;50314;50.618;10.642;2023-07-24T14:19:32;5.13;;;3.22;;
64063;SDS011;50314;50.618;10.642;2023-07-24T14:21:57;5.57;;;3.63;;
64063;SDS011;50314;50.618;10.642;2023-07-24T14:24:23;6.22;;;4.07;;
64063;SDS011;50314;50.618;10.642;2023-07-24T14:26:49;5.13;;;3.70;;
64063;SDS011;50314;50.618;10.642;2023-07-24T14:29:14;4.68;;;3.30;;
64063;SDS011;50314;50.618;10.642;2023-07-24T14:31:42;8.10;;;3.55;;
64063;SDS011;50314;50.618;10.642;2023-07-24T14:36:36;5.30;;;3.42;;
64063;SDS011;50314;50.618;10.642;2023-07-24T14:39:02;5.85;;;3.78;;
64063;SDS011;50314;50.618;10.642;2023-07-24T14:41:28;4.65;;;3.22;;
64063;SDS011;50314;50.618;10.642;2023-07-24T14:43:54;6.20;;;3.88;;
64063;SDS011;50314;50.618;10.642;2023-07-24T14:46:20;5.97;;;3.95;;
64063;SDS011;50314;50.618;10.642;2023-07-24T14:48:45;5.30;;;3.65;;
64063;SDS011;50314;50.618;10.642;2023-07-24T14:51:11;5.90;;;3.88;;
64063;SDS011;50314;50.618;10.642;2023-07-24T14:53:37;5.00;;;3.80;;
64063;SDS011;50314;50.618;10.642;2023-07-24T14:56:03;6.03;;;3.92;;